createdAt,value
2018-05-11T00:00:21.257Z,4.06
2018-05-11T00:06:16.235Z,3.98
2018-05-11T00:12:11.363Z,3.6
2018-05-11T00:18:06.258Z,4.06
2018-05-11T00:24:01.290Z,3.95
2018-05-11T00:29:56.369Z,3.98
2018-05-11T00:35:51.337Z,3.88
2018-05-11T00:41:46.296Z,4.12
2018-05-11T00:47:41.313Z,4.15
2018-05-11T00:53:36.299Z,3.92
2018-05-11T00:59:31.329Z,4.49
2018-05-11T01:05:26.289Z,4.03
2018-05-11T01:11:21.273Z,4.09
2018-05-11T01:17:16.284Z,4.08
2018-05-11T01:23:11.282Z,4.48
2018-05-11T01:29:06.316Z,4.13
2018-05-11T01:35:01.308Z,3.82
2018-05-11T01:40:56.280Z,4.29
2018-05-11T01:46:51.298Z,4.46
2018-05-11T01:52:46.280Z,4.78
2018-05-11T01:58:41.337Z,4.56
2018-05-11T02:04:36.297Z,4.45
2018-05-11T02:10:31.303Z,4.96
2018-05-11T02:16:26.310Z,4.67
2018-05-11T02:22:21.298Z,4.81
2018-05-11T02:28:16.414Z,5.37
2018-05-11T02:34:11.350Z,4.24
2018-05-11T02:40:06.336Z,4.48
2018-05-11T02:46:01.333Z,5.18
2018-05-11T02:51:56.331Z,5.93
2018-05-11T02:57:51.322Z,5.17
2018-05-11T03:03:46.355Z,5.37
2018-05-11T03:09:41.353Z,5.05
2018-05-11T03:15:36.337Z,4.79
2018-05-11T03:21:31.374Z,4.9
2018-05-11T03:27:26.315Z,5.16
2018-05-11T03:33:21.336Z,5.06
2018-05-11T03:39:16.329Z,4.56
2018-05-11T03:45:11.372Z,5.18
2018-05-11T03:51:06.327Z,5.06
2018-05-11T03:57:01.313Z,5.24
2018-05-11T04:02:56.312Z,4.85
2018-05-11T04:08:51.423Z,5.18
2018-05-11T04:14:46.358Z,6.57
2018-05-11T04:20:41.422Z,8.39
2018-05-11T04:26:36.348Z,9.52
2018-05-11T04:32:31.358Z,10.29
2018-05-11T04:38:26.358Z,10.32
2018-05-11T04:44:21.363Z,9.66
2018-05-11T04:50:16.355Z,10.01
2018-05-11T04:56:11.367Z,9.63
2018-05-11T05:02:06.367Z,9.6
2018-05-11T05:08:01.384Z,8.93
2018-05-11T05:13:56.353Z,9.12
2018-05-11T05:19:51.371Z,8.41
2018-05-11T05:25:46.346Z,8.74
2018-05-11T05:31:41.372Z,11.45
2018-05-11T05:37:36.343Z,17.74
2018-05-11T05:43:31.390Z,22.41
2018-05-11T05:49:26.433Z,20.75
2018-05-11T05:55:21.370Z,18.67
2018-05-11T06:01:16.392Z,19.93
2018-05-11T06:07:11.395Z,19.04
2018-05-11T06:13:06.396Z,42.57
2018-05-11T06:19:01.444Z,33.73
2018-05-11T06:24:56.410Z,31.21
2018-05-11T06:30:51.361Z,30.37
2018-05-11T06:36:46.361Z,26.33
2018-05-11T06:42:41.356Z,23.86
2018-05-11T06:48:36.372Z,21.35
2018-05-11T06:54:31.367Z,19.38
2018-05-11T07:00:26.430Z,16.54
2018-05-11T07:06:21.407Z,14.7
2018-05-11T07:12:16.387Z,12.95
2018-05-11T07:18:11.438Z,12.01
2018-05-11T07:24:06.399Z,15
2018-05-11T07:30:01.423Z,12.48
2018-05-11T07:35:56.374Z,11.97
2018-05-11T07:41:51.427Z,11.7
2018-05-11T07:47:46.398Z,13.06
2018-05-11T07:53:41.422Z,15.45
2018-05-11T07:59:36.417Z,12.02
2018-05-11T08:05:31.401Z,13.67
2018-05-11T08:11:26.382Z,12.26
2018-05-11T08:17:21.463Z,10.06
2018-05-11T08:23:16.414Z,9.39
2018-05-11T08:29:11.401Z,8.64
2018-05-11T08:35:06.454Z,9.81
2018-05-11T08:41:01.502Z,9.48
2018-05-11T08:46:56.531Z,9.24
2018-05-11T08:52:51.449Z,9.47
2018-05-11T08:58:46.413Z,9.23
2018-05-11T09:04:41.440Z,11.91
2018-05-11T09:10:36.444Z,11.44
2018-05-11T09:16:31.450Z,15.76
2018-05-11T09:22:26.494Z,14.14
2018-05-11T09:28:21.444Z,14.47
2018-05-11T09:34:16.429Z,17.95
2018-05-11T09:40:11.445Z,16.47
2018-05-11T09:46:06.537Z,16.34
2018-05-11T09:52:01.481Z,20.19
2018-05-11T09:57:56.459Z,18.46
2018-05-11T10:09:46.464Z,27.94
2018-05-11T10:21:36.477Z,23.34
2018-05-11T10:21:36.585Z,42.08
2018-05-11T10:27:31.450Z,32.64
2018-05-11T10:39:21.463Z,36.72
2018-05-11T10:39:21.513Z,37.91
2018-05-11T10:45:16.513Z,28.62
2018-05-11T10:51:11.515Z,26.38
2018-05-11T10:57:06.476Z,19.76
2018-05-11T11:03:01.507Z,19.88
2018-05-11T11:08:56.708Z,15.97
2018-05-11T11:14:51.503Z,12.81
2018-05-11T11:20:46.491Z,10.68
2018-05-11T11:26:41.555Z,9.38
2018-05-11T11:32:36.480Z,9.48
2018-05-11T11:38:31.537Z,9.94
2018-05-11T11:44:26.480Z,9.4
2018-05-11T11:50:21.511Z,8.44
2018-05-11T11:56:16.512Z,7.42
2018-05-11T12:02:11.480Z,7.8
2018-05-11T12:08:06.523Z,7.12
2018-05-11T12:14:01.659Z,10.68
2018-05-11T12:19:56.491Z,8.5
2018-05-11T12:25:51.490Z,8.26
2018-05-11T12:31:46.522Z,7.79
2018-05-11T12:37:41.540Z,8.05
2018-05-11T12:43:36.508Z,9.3
2018-05-11T12:49:31.523Z,7.45
2018-05-11T12:55:26.531Z,7.32
2018-05-11T13:01:21.520Z,6.82
2018-05-11T13:07:16.724Z,6.39
2018-05-11T13:13:11.515Z,5.73
2018-05-11T13:19:06.507Z,6.11
2018-05-11T13:25:01.580Z,6.01
2018-05-11T14:06:26.570Z,7.02
2018-05-11T14:06:26.629Z,17.45
2018-05-11T14:06:26.756Z,17.45
2018-05-11T14:06:26.756Z,17.45
2018-05-11T14:06:26.756Z,17.45
2018-05-11T14:06:26.757Z,17.45
2018-05-11T14:06:26.757Z,17.45
2018-05-11T14:36:01.575Z,10.32
2018-05-11T14:36:01.633Z,11.06
2018-05-11T14:36:01.651Z,11.06
2018-05-11T14:36:01.715Z,11.06
2018-05-11T14:36:01.724Z,11.06
2018-05-11T14:41:56.578Z,10.91
2018-05-11T14:47:51.556Z,10.57
2018-05-11T14:53:46.637Z,16.33
2018-05-11T14:59:41.606Z,15.4
2018-05-11T15:05:36.569Z,9.47
2018-05-11T15:11:31.596Z,8.84
2018-05-11T15:17:26.553Z,7.15
2018-05-11T15:23:21.555Z,6.9
2018-05-11T15:29:16.580Z,8
2018-05-11T15:35:11.577Z,7.38
2018-05-11T15:41:06.593Z,6.93
2018-05-11T15:47:01.605Z,6.81
2018-05-11T15:52:56.637Z,6.18
2018-05-11T15:58:51.587Z,6.34
2018-05-11T16:04:46.609Z,6.62
2018-05-11T16:10:41.664Z,5.75
2018-05-11T16:16:36.635Z,5.68
2018-05-11T16:22:31.625Z,5.55
2018-05-11T16:28:26.638Z,5.41
2018-05-11T16:34:21.665Z,5.38
2018-05-11T16:40:16.603Z,5.76
2018-05-11T16:46:11.612Z,7.73
2018-05-11T16:52:06.620Z,7.63
2018-05-11T16:58:02.244Z,6.86
2018-05-11T17:03:56.617Z,5.51
2018-05-11T17:09:51.599Z,4.7
2018-05-11T17:15:46.607Z,4.96
2018-05-11T17:21:41.633Z,4.51
2018-05-11T17:27:36.579Z,4.72
2018-05-11T17:33:31.644Z,4.4
2018-05-11T17:39:26.618Z,5.16
2018-05-11T17:45:21.657Z,5.17
2018-05-11T17:51:16.604Z,4.47
2018-05-11T17:57:11.639Z,4.95
2018-05-11T18:44:31.675Z,4.54
2018-05-11T18:44:31.752Z,5.44
2018-05-11T18:44:31.764Z,5.44
2018-05-11T18:44:31.776Z,5.44
2018-05-11T18:50:26.677Z,5.09
2018-05-11T18:56:21.665Z,5.09
2018-05-11T19:02:16.652Z,4.78
2018-05-11T19:08:11.642Z,4.81
2018-05-11T19:14:06.686Z,5.33
2018-05-11T19:20:01.774Z,4.99
2018-05-11T19:25:56.672Z,5.56
2018-05-11T19:31:51.658Z,5.16
2018-05-11T19:37:46.689Z,5.59
2018-05-11T19:43:41.656Z,5.68
2018-05-11T19:49:36.662Z,4.93
2018-05-11T19:55:31.696Z,5.18
2018-05-11T20:01:26.682Z,5.27
2018-05-11T20:07:21.670Z,5.18
2018-05-11T20:13:16.710Z,5.12
2018-05-11T20:19:11.676Z,5.69
2018-05-11T20:25:06.699Z,4.74
2018-05-11T20:31:01.684Z,5.38
2018-05-11T20:36:56.686Z,4.83
2018-05-11T20:42:51.712Z,5.34
2018-05-11T20:48:46.691Z,5.48
2018-05-11T20:54:41.732Z,5.24
2018-05-11T21:00:36.709Z,4.78
2018-05-11T21:06:31.701Z,5.22
2018-05-11T21:12:26.721Z,6.48
2018-05-11T21:18:21.686Z,6.06
2018-05-11T21:24:16.728Z,5.88
2018-05-11T21:30:11.699Z,5.36
2018-05-11T21:36:06.702Z,5.35
2018-05-11T21:42:01.701Z,5.57
2018-05-11T21:47:56.718Z,5.9
2018-05-11T21:53:51.710Z,5.17
2018-05-11T21:59:46.763Z,5.61
2018-05-11T22:05:41.709Z,5.32
2018-05-11T22:11:36.693Z,4.5
2018-05-11T22:17:31.722Z,5.38
2018-05-11T22:23:26.715Z,5.63
2018-05-11T22:29:21.704Z,5.34
2018-05-11T22:35:16.710Z,5.28
2018-05-11T22:41:11.714Z,5.08
2018-05-11T22:47:06.780Z,5.56
2018-05-11T22:53:01.774Z,6.25
2018-05-11T22:58:56.787Z,5.49
2018-05-11T23:04:51.705Z,5.79
2018-05-11T23:10:46.747Z,5.77
2018-05-11T23:16:41.762Z,5.06
2018-05-11T23:22:36.773Z,5.73
2018-05-11T23:28:31.771Z,5.14
2018-05-11T23:34:26.789Z,5.17
2018-05-11T23:40:21.728Z,5.12
2018-05-11T23:46:16.808Z,5.72
2018-05-11T23:52:11.778Z,5.79
2018-05-11T23:58:06.790Z,6.15
